sensor_id;sensor_type;location;lat;lon;timestamp;pressure;altitude;pressure_sealevel;temperature;humidity
47374;BME280;33123;50.118;10.272;2023-02-17T00:01:56;98373.94;;;6.18;74.98
47374;BME280;33123;50.118;10.272;2023-02-17T00:04:26;98374.31;;;6.21;74.71
47374;BME280;33123;50.118;10.272;2023-02-17T00:06:53;98341.72;;;6.04;74.81
47374;BME280;33123;50.118;10.272;2023-02-17T00:09:20;98375.16;;;6.28;75.21
47374;BME280;33123;50.118;10.272;2023-02-17T00:11:46;98368.50;;;6.32;74.94
47374;BME280;33123;50.118;10.272;2023-02-17T00:14:14;98363.88;;;6.34;75.48
47374;BME280;33123;50.118;10.272;2023-02-17T00:16:41;98336.69;;;6.22;75.33
47374;BME280;33123;50.118;10.272;2023-02-17T00:19:09;98359.63;;;6.47;75.23
47374;BME280;33123;50.118;10.272;2023-02-17T00:21:50;98357.22;;;6.52;75.12
47374;BME280;33123;50.118;10.272;2023-02-17T00:24:17;98360.03;;;6.57;75.13
47374;BME280;33123;50.118;10.272;2023-02-17T00:26:44;98362.84;;;6.62;74.42
47374;BME280;33123;50.118;10.272;2023-02-17T00:29:10;98347.72;;;6.64;74.65
47374;BME280;33123;50.118;10.272;2023-02-17T00:31:37;98345.69;;;6.66;74.45
47374;BME280;33123;50.118;10.272;2023-02-17T00:34:03;98347.69;;;6.71;74.25
47374;BME280;33123;50.118;10.272;2023-02-17T00:36:30;98349.13;;;6.73;74.32
47374;BME280;33123;50.118;10.272;2023-02-17T00:38:58;98352.34;;;6.75;74.34
47374;BME280;33123;50.118;10.272;2023-02-17T00:41:25;98349.50;;;6.77;74.49
47374;BME280;33123;50.118;10.272;2023-02-17T00:43:52;98338.84;;;6.78;74.14
47374;BME280;33123;50.118;10.272;2023-02-17T00:46:19;98344.06;;;6.78;74.15
47374;BME280;33123;50.118;10.272;2023-02-17T00:48:47;98338.44;;;6.75;73.88
47374;BME280;33123;50.118;10.272;2023-02-17T00:51:14;98346.69;;;6.78;73.65
47374;BME280;33123;50.118;10.272;2023-02-17T00:53:41;98347.09;;;6.75;73.27
47374;BME280;33123;50.118;10.272;2023-02-17T00:56:10;98320.50;;;6.65;73.60
47374;BME280;33123;50.118;10.272;2023-02-17T00:58:37;98349.31;;;6.78;73.83
47374;BME280;33123;50.118;10.272;2023-02-17T01:01:05;98342.03;;;6.80;73.74
47374;BME280;33123;50.118;10.272;2023-02-17T01:03:32;98348.31;;;6.79;73.84
47374;BME280;33123;50.118;10.272;2023-02-17T01:06:04;98348.50;;;6.71;74.55
47374;BME280;33123;50.118;10.272;2023-02-17T01:08:31;98349.28;;;6.85;74.07
47374;BME280;33123;50.118;10.272;2023-02-17T01:10:58;98356.94;;;6.86;73.53
47374;BME280;33123;50.118;10.272;2023-02-17T01:13:26;98351.50;;;6.88;73.79
47374;BME280;33123;50.118;10.272;2023-02-17T01:15:53;98349.28;;;6.85;73.41
47374;BME280;33123;50.118;10.272;2023-02-17T01:18:22;98347.66;;;6.91;73.22
47374;BME280;33123;50.118;10.272;2023-02-17T01:20:49;98337.22;;;6.84;73.69
47374;BME280;33123;50.118;10.272;2023-02-17T01:23:16;98341.25;;;6.80;73.66
47374;BME280;33123;50.118;10.272;2023-02-17T01:25:45;98334.78;;;6.82;73.53
47374;BME280;33123;50.118;10.272;2023-02-17T01:28:15;98338.63;;;6.80;73.98
47374;BME280;33123;50.118;10.272;2023-02-17T01:30:43;98324.09;;;6.77;73.97
47374;BME280;33123;50.118;10.272;2023-02-17T01:33:09;98328.56;;;6.70;74.29
47374;BME280;33123;50.118;10.272;2023-02-17T01:35:36;98320.31;;;6.73;74.14
47374;BME280;33123;50.118;10.272;2023-02-17T01:38:03;98319.88;;;6.76;74.50
47374;BME280;33123;50.118;10.272;2023-02-17T01:40:29;98322.91;;;6.80;74.80
47374;BME280;33123;50.118;10.272;2023-02-17T01:42:56;98309.41;;;6.83;74.48
47374;BME280;33123;50.118;10.272;2023-02-17T01:45:44;98313.81;;;6.89;74.11
47374;BME280;33123;50.118;10.272;2023-02-17T01:48:14;98308.16;;;6.92;74.67
47374;BME280;33123;50.118;10.272;2023-02-17T01:50:44;98303.91;;;6.98;74.79
47374;BME280;33123;50.118;10.272;2023-02-17T01:53:14;98298.25;;;7.01;74.93
47374;BME280;33123;50.118;10.272;2023-02-17T01:55:43;98268.66;;;6.87;75.43
47374;BME280;33123;50.118;10.272;2023-02-17T01:58:13;98278.34;;;6.86;75.94
47374;BME280;33123;50.118;10.272;2023-02-17T02:00:41;98284.31;;;7.07;75.42
47374;BME280;33123;50.118;10.272;2023-02-17T02:03:11;98283.31;;;7.01;75.77
47374;BME280;33123;50.118;10.272;2023-02-17T02:05:40;98283.47;;;7.13;75.08
47374;BME280;33123;50.118;10.272;2023-02-17T02:08:08;98279.03;;;7.13;75.01
47374;BME280;33123;50.118;10.272;2023-02-17T02:10:35;98286.28;;;7.18;75.01
47374;BME280;33123;50.118;10.272;2023-02-17T02:13:02;98268.38;;;7.08;74.50
47374;BME280;33123;50.118;10.272;2023-02-17T02:15:34;98280.59;;;7.21;74.73
47374;BME280;33123;50.118;10.272;2023-02-17T02:18:12;98282.63;;;7.19;74.71
47374;BME280;33123;50.118;10.272;2023-02-17T02:23:53;98286.63;;;7.28;74.57
47374;BME280;33123;50.118;10.272;2023-02-17T02:29:57;98245.03;;;7.32;74.16
47374;BME280;33123;50.118;10.272;2023-02-17T02:32:38;98255.47;;;7.45;73.24
47374;BME280;33123;50.118;10.272;2023-02-17T02:35:12;98253.88;;;7.37;72.96
47374;BME280;33123;50.118;10.272;2023-02-17T02:37:45;98261.91;;;7.43;73.25
47374;BME280;33123;50.118;10.272;2023-02-17T02:40:14;98244.84;;;7.33;73.00
47374;BME280;33123;50.118;10.272;2023-02-17T02:42:42;98263.34;;;7.45;73.29
47374;BME280;33123;50.118;10.272;2023-02-17T02:45:10;98262.09;;;7.48;72.94
47374;BME280;33123;50.118;10.272;2023-02-17T02:47:44;98241.00;;;7.36;73.19
47374;BME280;33123;50.118;10.272;2023-02-17T02:50:11;98250.97;;;7.52;73.35
47374;BME280;33123;50.118;10.272;2023-02-17T02:52:46;98255.03;;;7.48;73.29
47374;BME280;33123;50.118;10.272;2023-02-17T02:55:22;98242.31;;;7.52;73.32
47374;BME280;33123;50.118;10.272;2023-02-17T02:57:57;98246.31;;;7.54;73.56
47374;BME280;33123;50.118;10.272;2023-02-17T03:00:32;98246.53;;;7.53;74.44
47374;BME280;33123;50.118;10.272;2023-02-17T03:03:08;98241.88;;;7.55;74.41
47374;BME280;33123;50.118;10.272;2023-02-17T03:05:43;98226.34;;;7.53;74.93
47374;BME280;33123;50.118;10.272;2023-02-17T03:08:17;98228.75;;;7.55;75.12
47374;BME280;33123;50.118;10.272;2023-02-17T03:10:46;98223.34;;;7.75;74.94
47374;BME280;33123;50.118;10.272;2023-02-17T03:13:13;98216.38;;;7.87;74.66
47374;BME280;33123;50.118;10.272;2023-02-17T03:15:41;98219.16;;;7.92;74.74
47374;BME280;33123;50.118;10.272;2023-02-17T03:18:09;98221.97;;;7.97;75.43
47374;BME280;33123;50.118;10.272;2023-02-17T03:20:38;98203.81;;;7.96;74.69
47374;BME280;33123;50.118;10.272;2023-02-17T03:23:06;98214.91;;;8.16;75.16
47374;BME280;33123;50.118;10.272;2023-02-17T03:25:32;98213.75;;;8.30;74.40
47374;BME280;33123;50.118;10.272;2023-02-17T03:27:59;98221.81;;;8.10;75.29
47374;BME280;33123;50.118;10.272;2023-02-17T03:30:26;98216.88;;;8.20;74.75
47374;BME280;33123;50.118;10.272;2023-02-17T03:32:53;98208.53;;;8.49;73.61
47374;BME280;33123;50.118;10.272;2023-02-17T03:35:21;98211.38;;;8.47;73.99
47374;BME280;33123;50.118;10.272;2023-02-17T03:37:48;98168.97;;;8.25;73.34
47374;BME280;33123;50.118;10.272;2023-02-17T03:40:14;98197.59;;;8.52;73.73
47374;BME280;33123;50.118;10.272;2023-02-17T03:42:41;98205.75;;;8.62;73.27
47374;BME280;33123;50.118;10.272;2023-02-17T03:45:09;98196.28;;;8.61;73.11
47374;BME280;33123;50.118;10.272;2023-02-17T03:47:35;98193.75;;;8.66;73.10
47374;BME280;33123;50.118;10.272;2023-02-17T03:50:03;98195.03;;;8.45;73.67
47374;BME280;33123;50.118;10.272;2023-02-17T03:52:31;98186.91;;;8.65;73.63
47374;BME280;33123;50.118;10.272;2023-02-17T03:54:57;98193.84;;;8.59;73.52
47374;BME280;33123;50.118;10.272;2023-02-17T03:57:24;98188.09;;;8.69;73.22
47374;BME280;33123;50.118;10.272;2023-02-17T03:59:51;98186.09;;;8.64;73.24
47374;BME280;33123;50.118;10.272;2023-02-17T04:02:18;98197.94;;;8.73;73.15
47374;BME280;33123;50.118;10.272;2023-02-17T04:04:45;98196.84;;;8.63;73.64
47374;BME280;33123;50.118;10.272;2023-02-17T04:07:12;98194.38;;;8.50;74.51
47374;BME280;33123;50.118;10.272;2023-02-17T04:09:41;98196.63;;;8.64;74.11
47374;BME280;33123;50.118;10.272;2023-02-17T04:12:07;98195.41;;;8.67;74.05
47374;BME280;33123;50.118;10.272;2023-02-17T04:14:34;98194.09;;;8.58;74.25
47374;BME280;33123;50.118;10.272;2023-02-17T04:17:01;98198.59;;;8.69;73.96
47374;BME280;33123;50.118;10.272;2023-02-17T04:19:28;98198.44;;;8.64;74.48
47374;BME280;33123;50.118;10.272;2023-02-17T04:21:55;98199.75;;;8.73;74.56
47374;BME280;33123;50.118;10.272;2023-02-17T04:24:21;98207.03;;;8.71;74.54
47374;BME280;33123;50.118;10.272;2023-02-17T04:26:49;98209.63;;;8.78;74.18
47374;BME280;33123;50.118;10.272;2023-02-17T04:29:16;98204.84;;;8.86;73.68
47374;BME280;33123;50.118;10.272;2023-02-17T04:31:42;98210.97;;;8.80;74.14
47374;BME280;33123;50.118;10.272;2023-02-17T04:34:09;98210.56;;;8.83;74.15
47374;BME280;33123;50.118;10.272;2023-02-17T04:36:36;98211.94;;;8.86;74.21
47374;BME280;33123;50.118;10.272;2023-02-17T04:39:02;98208.34;;;8.80;74.31
47374;BME280;33123;50.118;10.272;2023-02-17T04:41:29;98208.50;;;8.85;74.01
47374;BME280;33123;50.118;10.272;2023-02-17T04:43:57;98211.84;;;8.92;73.34
47374;BME280;33123;50.118;10.272;2023-02-17T04:46:24;98220.59;;;8.86;73.78
47374;BME280;33123;50.118;10.272;2023-02-17T04:48:51;98216.38;;;8.85;73.78
47374;BME280;33123;50.118;10.272;2023-02-17T04:51:17;98216.66;;;8.77;74.48
47374;BME280;33123;50.118;10.272;2023-02-17T04:53:44;98207.69;;;8.85;73.91
47374;BME280;33123;50.118;10.272;2023-02-17T04:56:10;98203.00;;;8.87;73.77
47374;BME280;33123;50.118;10.272;2023-02-17T04:58:37;98189.69;;;8.70;74.24
47374;BME280;33123;50.118;10.272;2023-02-17T05:01:05;98197.63;;;8.82;73.96
47374;BME280;33123;50.118;10.272;2023-02-17T05:03:32;98193.84;;;8.78;74.27
47374;BME280;33123;50.118;10.272;2023-02-17T05:05:58;98197.34;;;8.71;75.08
47374;BME280;33123;50.118;10.272;2023-02-17T05:08:25;98189.16;;;8.80;74.75
47374;BME280;33123;50.118;10.272;2023-02-17T05:10:52;98184.44;;;8.70;75.50
47374;BME280;33123;50.118;10.272;2023-02-17T05:13:19;98189.34;;;8.66;75.66
47374;BME280;33123;50.118;10.272;2023-02-17T05:15:46;98176.56;;;8.52;76.67
47374;BME280;33123;50.118;10.272;2023-02-17T05:18:14;98173.81;;;8.46;77.25
47374;BME280;33123;50.118;10.272;2023-02-17T05:20:41;98172.97;;;8.64;76.68
47374;BME280;33123;50.118;10.272;2023-02-17T05:23:07;98163.06;;;8.66;76.60
47374;BME280;33123;50.118;10.272;2023-02-17T05:25:34;98166.63;;;8.54;77.63
47374;BME280;33123;50.118;10.272;2023-02-17T05:28:00;98165.88;;;8.65;76.64
47374;BME280;33123;50.118;10.272;2023-02-17T05:30:27;98163.41;;;8.70;77.13
47374;BME280;33123;50.118;10.272;2023-02-17T05:32:54;98164.56;;;8.74;77.57
47374;BME280;33123;50.118;10.272;2023-02-17T05:35:22;98161.72;;;8.76;77.22
47374;BME280;33123;50.118;10.272;2023-02-17T05:37:48;98155.50;;;8.88;76.97
47374;BME280;33123;50.118;10.272;2023-02-17T05:40:15;98160.16;;;8.86;77.25
47374;BME280;33123;50.118;10.272;2023-02-17T05:42:42;98158.03;;;8.95;76.65
47374;BME280;33123;50.118;10.272;2023-02-17T05:45:09;98147.28;;;8.96;76.44
47374;BME280;33123;50.118;10.272;2023-02-17T05:47:35;98139.13;;;8.86;76.32
47374;BME280;33123;50.118;10.272;2023-02-17T05:50:02;98141.63;;;9.11;75.58
47374;BME280;33123;50.118;10.272;2023-02-17T05:52:31;98148.91;;;9.09;75.07
47374;BME280;33123;50.118;10.272;2023-02-17T05:54:57;98153.03;;;8.75;76.79
47374;BME280;33123;50.118;10.272;2023-02-17T05:57:24;98150.13;;;8.95;76.72
47374;BME280;33123;50.118;10.272;2023-02-17T05:59:51;98155.09;;;9.15;76.30
47374;BME280;33123;50.118;10.272;2023-02-17T06:02:18;98154.59;;;8.94;77.59
47374;BME280;33123;50.118;10.272;2023-02-17T06:04:45;98161.16;;;9.15;76.58
47374;BME280;33123;50.118;10.272;2023-02-17T06:07:12;98165.34;;;9.05;77.77
47374;BME280;33123;50.118;10.272;2023-02-17T06:09:40;98159.59;;;9.38;76.20
47374;BME280;33123;50.118;10.272;2023-02-17T06:12:06;98159.41;;;9.39;75.95
47374;BME280;33123;50.118;10.272;2023-02-17T06:14:33;98161.56;;;9.42;76.34
47374;BME280;33123;50.118;10.272;2023-02-17T06:17:00;98169.91;;;9.39;76.54
47374;BME280;33123;50.118;10.272;2023-02-17T06:19:28;98154.00;;;9.34;76.72
47374;BME280;33123;50.118;10.272;2023-02-17T06:21:57;98155.84;;;9.57;76.20
47374;BME280;33123;50.118;10.272;2023-02-17T06:24:24;98160.09;;;9.58;76.18
47374;BME280;33123;50.118;10.272;2023-02-17T06:26:52;98157.34;;;9.53;76.64
47374;BME280;33123;50.118;10.272;2023-02-17T06:29:19;98159.72;;;9.55;76.16
47374;BME280;33123;50.118;10.272;2023-02-17T06:31:45;98157.56;;;9.40;77.79
47374;BME280;33123;50.118;10.272;2023-02-17T06:34:12;98150.47;;;9.40;78.23
47374;BME280;33123;50.118;10.272;2023-02-17T06:36:38;98158.25;;;9.59;77.54
47374;BME280;33123;50.118;10.272;2023-02-17T06:39:05;98150.03;;;9.67;77.13
47374;BME280;33123;50.118;10.272;2023-02-17T06:41:32;98154.59;;;9.60;78.32
47374;BME280;33123;50.118;10.272;2023-02-17T06:43:59;98153.47;;;9.67;77.78
47374;BME280;33123;50.118;10.272;2023-02-17T06:46:26;98144.16;;;9.41;78.88
47374;BME280;33123;50.118;10.272;2023-02-17T06:48:53;98158.50;;;9.57;79.41
47374;BME280;33123;50.118;10.272;2023-02-17T06:51:19;98160.22;;;9.75;78.59
47374;BME280;33123;50.118;10.272;2023-02-17T06:53:47;98149.91;;;9.85;78.28
47374;BME280;33123;50.118;10.272;2023-02-17T06:56:13;98147.84;;;9.64;78.77
47374;BME280;33123;50.118;10.272;2023-02-17T06:58:40;98151.50;;;9.86;78.19
47374;BME280;33123;50.118;10.272;2023-02-17T07:01:14;98159.28;;;9.81;78.34
47374;BME280;33123;50.118;10.272;2023-02-17T07:03:41;98169.25;;;9.91;78.33
47374;BME280;33123;50.118;10.272;2023-02-17T07:06:08;98171.63;;;10.04;77.73
47374;BME280;33123;50.118;10.272;2023-02-17T07:08:34;98173.16;;;10.00;78.53
47374;BME280;33123;50.118;10.272;2023-02-17T07:11:04;98142.25;;;9.72;79.06
47374;BME280;33123;50.118;10.272;2023-02-17T07:13:30;98173.13;;;9.76;79.95
47374;BME280;33123;50.118;10.272;2023-02-17T07:15:57;98183.56;;;10.07;78.89
47374;BME280;33123;50.118;10.272;2023-02-17T07:18:25;98187.91;;;10.13;78.52
47374;BME280;33123;50.118;10.272;2023-02-17T07:20:52;98192.13;;;10.14;78.37
47374;BME280;33123;50.118;10.272;2023-02-17T07:23:19;98198.19;;;10.14;78.67
47374;BME280;33123;50.118;10.272;2023-02-17T07:25:45;98203.34;;;10.21;78.39
47374;BME280;33123;50.118;10.272;2023-02-17T07:28:12;98212.84;;;9.98;79.52
47374;BME280;33123;50.118;10.272;2023-02-17T07:30:39;98212.53;;;10.18;78.74
47374;BME280;33123;50.118;10.272;2023-02-17T07:33:06;98203.16;;;10.11;79.41
47374;BME280;33123;50.118;10.272;2023-02-17T07:35:39;98210.56;;;10.14;78.91
47374;BME280;33123;50.118;10.272;2023-02-17T07:38:08;98202.56;;;10.09;79.39
47374;BME280;33123;50.118;10.272;2023-02-17T07:40:34;98204.84;;;10.17;79.05
47374;BME280;33123;50.118;10.272;2023-02-17T07:43:01;98204.28;;;10.26;78.44
47374;BME280;33123;50.118;10.272;2023-02-17T07:45:28;98197.06;;;10.22;78.42
47374;BME280;33123;50.118;10.272;2023-02-17T07:47:54;98197.06;;;10.22;78.29
47374;BME280;33123;50.118;10.272;2023-02-17T07:50:21;98197.63;;;10.36;77.76
47374;BME280;33123;50.118;10.272;2023-02-17T07:52:49;98197.50;;;10.19;78.73
47374;BME280;33123;50.118;10.272;2023-02-17T07:55:16;98203.94;;;10.23;78.60
47374;BME280;33123;50.118;10.272;2023-02-17T07:57:50;98202.00;;;10.18;78.72
47374;BME280;33123;50.118;10.272;2023-02-17T08:00:17;98208.72;;;10.38;77.82
47374;BME280;33123;50.118;10.272;2023-02-17T08:02:44;98213.56;;;10.29;78.23
47374;BME280;33123;50.118;10.272;2023-02-17T08:05:11;98209.91;;;10.30;77.77
47374;BME280;33123;50.118;10.272;2023-02-17T08:07:37;98212.88;;;10.45;77.47
47374;BME280;33123;50.118;10.272;2023-02-17T08:10:07;98207.63;;;10.34;77.83
47374;BME280;33123;50.118;10.272;2023-02-17T08:13:05;98217.91;;;10.35;78.13
47374;BME280;33123;50.118;10.272;2023-02-17T08:15:47;98199.34;;;10.42;77.25
47374;BME280;33123;50.118;10.272;2023-02-17T08:18:13;98173.81;;;10.19;77.96
47374;BME280;33123;50.118;10.272;2023-02-17T08:20:40;98213.91;;;10.44;77.80
47374;BME280;33123;50.118;10.272;2023-02-17T08:23:06;98214.19;;;10.60;76.85
47374;BME280;33123;50.118;10.272;2023-02-17T08:25:35;98204.34;;;10.67;76.56
47374;BME280;33123;50.118;10.272;2023-02-17T08:28:03;98209.53;;;10.50;77.05
47374;BME280;33123;50.118;10.272;2023-02-17T08:30:30;98204.34;;;10.67;76.58
47374;BME280;33123;50.118;10.272;2023-02-17T08:32:56;98195.19;;;10.57;76.47
47374;BME280;33123;50.118;10.272;2023-02-17T08:35:23;98187.84;;;10.60;76.90
47374;BME280;33123;50.118;10.272;2023-02-17T08:37:50;98184.38;;;10.71;76.63
47374;BME280;33123;50.118;10.272;2023-02-17T08:40:17;98193.97;;;10.77;76.19
47374;BME280;33123;50.118;10.272;2023-02-17T08:42:45;98192.09;;;10.61;76.53
47374;BME280;33123;50.118;10.272;2023-02-17T08:45:13;98201.41;;;10.80;76.16
47374;BME280;33123;50.118;10.272;2023-02-17T08:47:40;98207.09;;;10.60;76.80
47374;BME280;33123;50.118;10.272;2023-02-17T08:50:08;98201.13;;;10.65;76.93
47374;BME280;33123;50.118;10.272;2023-02-17T08:52:35;98201.03;;;10.88;76.09
47374;BME280;33123;50.118;10.272;2023-02-17T08:55:02;98199.81;;;10.79;76.38
47374;BME280;33123;50.118;10.272;2023-02-17T08:57:29;98202.47;;;10.79;76.43
47374;BME280;33123;50.118;10.272;2023-02-17T08:59:57;98201.81;;;11.00;75.70
47374;BME280;33123;50.118;10.272;2023-02-17T09:02:23;98208.78;;;11.06;75.06
47374;BME280;33123;50.118;10.272;2023-02-17T09:04:50;98204.16;;;11.14;75.03
47374;BME280;33123;50.118;10.272;2023-02-17T09:07:17;98210.56;;;11.18;74.89
47374;BME280;33123;50.118;10.272;2023-02-17T09:09:43;98203.03;;;11.09;75.00
47374;BME280;33123;50.118;10.272;2023-02-17T09:12:10;98218.72;;;11.16;74.53
47374;BME280;33123;50.118;10.272;2023-02-17T09:17:13;98203.19;;;11.20;74.62
47374;BME280;33123;50.118;10.272;2023-02-17T09:19:40;98204.97;;;11.31;74.34
47374;BME280;33123;50.118;10.272;2023-02-17T09:22:06;98206.13;;;11.35;74.17
47374;BME280;33123;50.118;10.272;2023-02-17T09:24:33;98203.94;;;11.32;74.40
47374;BME280;33123;50.118;10.272;2023-02-17T09:27:02;98215.06;;;11.34;74.22
47374;BME280;33123;50.118;10.272;2023-02-17T09:29:29;98211.22;;;11.42;73.81
47374;BME280;33123;50.118;10.272;2023-02-17T09:31:56;98214.38;;;11.55;73.62
47374;BME280;33123;50.118;10.272;2023-02-17T09:34:24;98201.00;;;11.45;73.83
47374;BME280;33123;50.118;10.272;2023-02-17T09:36:50;98201.28;;;11.32;74.19
47374;BME280;33123;50.118;10.272;2023-02-17T09:39:17;98191.88;;;11.53;73.59
47374;BME280;33123;50.118;10.272;2023-02-17T09:41:45;98195.91;;;11.55;73.33
47374;BME280;33123;50.118;10.272;2023-02-17T09:44:18;98188.53;;;11.41;73.08
47374;BME280;33123;50.118;10.272;2023-02-17T09:46:47;98213.34;;;11.73;72.83
47374;BME280;33123;50.118;10.272;2023-02-17T09:49:18;98207.72;;;11.53;73.37
47374;BME280;33123;50.118;10.272;2023-02-17T09:51:52;98202.16;;;11.49;73.56
47374;BME280;33123;50.118;10.272;2023-02-17T09:54:23;98199.25;;;11.68;73.07
47374;BME280;33123;50.118;10.272;2023-02-17T09:56:54;98167.88;;;11.37;73.23
47374;BME280;33123;50.118;10.272;2023-02-17T09:59:26;98201.81;;;11.46;73.72
47374;BME280;33123;50.118;10.272;2023-02-17T10:01:54;98196.13;;;11.71;73.03
47374;BME280;33123;50.118;10.272;2023-02-17T10:04:26;98196.44;;;11.74;72.74
47374;BME280;33123;50.118;10.272;2023-02-17T10:07:00;98197.00;;;11.43;73.61
47374;BME280;33123;50.118;10.272;2023-02-17T10:09:32;98204.69;;;11.78;72.73
47374;BME280;33123;50.118;10.272;2023-02-17T10:12:02;98204.69;;;11.78;72.84
47374;BME280;33123;50.118;10.272;2023-02-17T10:14:33;98210.88;;;11.67;73.27
47374;BME280;33123;50.118;10.272;2023-02-17T10:17:07;98214.13;;;11.57;74.37
47374;BME280;33123;50.118;10.272;2023-02-17T10:19:37;98206.13;;;11.69;74.18
47374;BME280;33123;50.118;10.272;2023-02-17T10:22:13;98215.09;;;11.68;74.58
47374;BME280;33123;50.118;10.272;2023-02-17T10:24:41;98222.78;;;11.69;75.31
47374;BME280;33123;50.118;10.272;2023-02-17T10:27:35;98216.06;;;11.61;75.84
47374;BME280;33123;50.118;10.272;2023-02-17T10:30:16;98222.22;;;11.50;76.14
47374;BME280;33123;50.118;10.272;2023-02-17T10:33:01;98208.06;;;11.56;76.39
47374;BME280;33123;50.118;10.272;2023-02-17T10:35:44;98203.56;;;11.57;76.47
47374;BME280;33123;50.118;10.272;2023-02-17T10:38:16;98210.78;;;11.45;77.05
47374;BME280;33123;50.118;10.272;2023-02-17T10:40:46;98211.06;;;11.48;77.26
47374;BME280;33123;50.118;10.272;2023-02-17T10:43:20;98214.22;;;11.45;78.05
47374;BME280;33123;50.118;10.272;2023-02-17T10:45:48;98215.16;;;11.39;78.47
47374;BME280;33123;50.118;10.272;2023-02-17T10:48:19;98210.75;;;11.28;78.98
47374;BME280;33123;50.118;10.272;2023-02-17T10:50:47;98187.47;;;11.25;78.96
47374;BME280;33123;50.118;10.272;2023-02-17T10:53:18;98199.16;;;11.29;78.92
47374;BME280;33123;50.118;10.272;2023-02-17T10:55:53;98204.03;;;11.37;79.02
47374;BME280;33123;50.118;10.272;2023-02-17T10:58:25;98188.00;;;11.27;79.18
47374;BME280;33123;50.118;10.272;2023-02-17T11:00:54;98143.09;;;11.05;79.23
47374;BME280;33123;50.118;10.272;2023-02-17T11:03:24;98188.09;;;11.32;79.06
47374;BME280;33123;50.118;10.272;2023-02-17T11:05:53;98192.50;;;11.43;79.11
47374;BME280;33123;50.118;10.272;2023-02-17T11:08:29;98186.22;;;11.44;78.79
47374;BME280;33123;50.118;10.272;2023-02-17T11:11:02;98197.47;;;11.23;79.57
47374;BME280;33123;50.118;10.272;2023-02-17T11:13:33;98189.31;;;11.41;79.02
47374;BME280;33123;50.118;10.272;2023-02-17T11:16:01;98187.47;;;11.42;79.13
47374;BME280;33123;50.118;10.272;2023-02-17T11:18:30;98185.47;;;11.49;79.15
47374;BME280;33123;50.118;10.272;2023-02-17T11:21:04;98176.84;;;11.53;78.57
47374;BME280;33123;50.118;10.272;2023-02-17T11:23:33;98187.91;;;11.50;79.33
47374;BME280;33123;50.118;10.272;2023-02-17T11:26:07;98198.47;;;11.50;78.35
47374;BME280;33123;50.118;10.272;2023-02-17T11:28:35;98189.50;;;11.51;78.94
47374;BME280;33123;50.118;10.272;2023-02-17T11:31:01;98183.41;;;11.68;78.17
47374;BME280;33123;50.118;10.272;2023-02-17T11:33:36;98189.16;;;11.64;78.47
47374;BME280;33123;50.118;10.272;2023-02-17T11:36:04;98184.28;;;11.73;77.74
47374;BME280;33123;50.118;10.272;2023-02-17T11:38:42;98183.31;;;11.79;77.69
47374;BME280;33123;50.118;10.272;2023-02-17T11:41:10;98182.44;;;11.74;77.76
47374;BME280;33123;50.118;10.272;2023-02-17T11:43:38;98173.75;;;11.56;78.03
47374;BME280;33123;50.118;10.272;2023-02-17T11:46:12;98181.25;;;11.64;77.56
47374;BME280;33123;50.118;10.272;2023-02-17T11:51:56;98164.06;;;11.96;76.93
47374;BME280;33123;50.118;10.272;2023-02-17T11:54:35;98167.47;;;11.79;77.59
47374;BME280;33123;50.118;10.272;2023-02-17T11:57:17;98155.50;;;11.88;77.55
47374;BME280;33123;50.118;10.272;2023-02-17T11:59:56;98147.69;;;11.99;76.72
47374;BME280;33123;50.118;10.272;2023-02-17T12:02:40;98145.53;;;12.12;76.21
47374;BME280;33123;50.118;10.272;2023-02-17T12:05:21;98148.69;;;12.14;75.82
47374;BME280;33123;50.118;10.272;2023-02-17T12:08:03;98137.19;;;12.04;76.33
47374;BME280;33123;50.118;10.272;2023-02-17T12:10:44;98146.75;;;12.05;76.11
47374;BME280;33123;50.118;10.272;2023-02-17T12:13:22;98139.63;;;12.05;76.71
47374;BME280;33123;50.118;10.272;2023-02-17T12:16:01;98143.81;;;12.23;75.87
47374;BME280;33123;50.118;10.272;2023-02-17T12:18:47;98149.22;;;12.33;75.35
47374;BME280;33123;50.118;10.272;2023-02-17T12:21:28;98153.94;;;12.31;75.19
47374;BME280;33123;50.118;10.272;2023-02-17T12:24:06;98147.25;;;12.24;75.60
47374;BME280;33123;50.118;10.272;2023-02-17T12:26:41;98146.69;;;12.43;74.79
47374;BME280;33123;50.118;10.272;2023-02-17T12:29:22;98149.44;;;12.54;74.68
47374;BME280;33123;50.118;10.272;2023-02-17T12:32:06;98125.38;;;12.28;74.49
47374;BME280;33123;50.118;10.272;2023-02-17T12:34:38;98140.59;;;12.43;74.47
47374;BME280;33123;50.118;10.272;2023-02-17T12:37:13;98130.09;;;12.48;74.11
47374;BME280;33123;50.118;10.272;2023-02-17T12:39:47;98093.59;;;12.45;73.98
47374;BME280;33123;50.118;10.272;2023-02-17T12:42:21;98120.88;;;12.51;74.44
47374;BME280;33123;50.118;10.272;2023-02-17T12:44:54;98113.22;;;12.54;74.33
47374;BME280;33123;50.118;10.272;2023-02-17T12:47:28;98119.03;;;12.51;74.47
47374;BME280;33123;50.118;10.272;2023-02-17T12:50:02;98104.75;;;12.52;74.79
47374;BME280;33123;50.118;10.272;2023-02-17T12:52:35;98096.28;;;12.50;74.84
47374;BME280;33123;50.118;10.272;2023-02-17T12:55:11;98087.81;;;12.75;73.98
47374;BME280;33123;50.118;10.272;2023-02-17T12:57:46;98086.25;;;12.79;73.88
47374;BME280;33123;50.118;10.272;2023-02-17T13:00:20;98090.16;;;12.72;74.07
47374;BME280;33123;50.118;10.272;2023-02-17T13:02:48;98090.19;;;12.77;74.05
47374;BME280;33123;50.118;10.272;2023-02-17T13:05:21;98081.75;;;12.80;73.89
47374;BME280;33123;50.118;10.272;2023-02-17T13:07:56;98085.25;;;12.85;73.58
47374;BME280;33123;50.118;10.272;2023-02-17T13:10:32;98080.66;;;12.76;74.18
47374;BME280;33123;50.118;10.272;2023-02-17T13:13:04;98080.31;;;12.94;73.48
47374;BME280;33123;50.118;10.272;2023-02-17T13:15:37;98061.13;;;12.82;73.04
47374;BME280;33123;50.118;10.272;2023-02-17T13:18:10;98081.81;;;12.85;73.58
47374;BME280;33123;50.118;10.272;2023-02-17T13:20:50;98085.09;;;12.97;73.60